Time;durP1;ratioP1;P1;durP2;ratioP2;P2;SDS_P1;SDS_P2;PMS_P1;PMS_P2;Temp;Humidity;BMP_temperature;BMP_pressure;BME280_temperature;BME280_humidity;BME280_pressure;Samples;Min_cycle;Max_cycle;Signal;HPM_P1;HPM_P2
2021/07/01 00:00:37;;;;;;;12.53;11.23;;;18.90;99.90;;;;;;5007226;28;20464;-80
2021/07/01 00:03:04;;;;;;;12.93;11.50;;;18.90;99.90;;;;;;5001660;28;20455;-79
2021/07/01 00:05:31;;;;;;;14.13;12.27;;;18.90;99.90;;;;;;5011603;28;20963;-80
2021/07/01 00:07:58;;;;;;;15.93;12.20;;;18.90;99.90;;;;;;5000130;28;20926;-80
2021/07/01 00:10:27;;;;;;;13.07;11.63;;;19.00;99.90;;;;;;5006564;28;20455;-79
2021/07/01 00:12:55;;;;;;;15.10;11.97;;;19.00;99.90;;;;;;4998979;28;20483;-79
2021/07/01 00:15:23;;;;;;;15.10;12.87;;;19.00;99.90;;;;;;5010307;28;20477;-79
2021/07/01 00:17:51;;;;;;;12.90;11.60;;;19.00;99.90;;;;;;5013857;28;20493;-79
2021/07/01 00:20:19;;;;;;;17.00;13.77;;;19.00;99.90;;;;;;5012957;28;20477;-79
2021/07/01 00:22:45;;;;;;;15.27;12.57;;;18.90;99.90;;;;;;5014456;28;20482;-80
2021/07/01 00:25:13;;;;;;;14.60;12.10;;;19.00;99.90;;;;;;5014761;28;20496;-79
2021/07/01 00:27:40;;;;;;;13.60;12.20;;;18.90;99.90;;;;;;5014704;28;20496;-79
2021/07/01 00:30:10;;;;;;;12.47;10.40;;;18.90;99.90;;;;;;5014529;28;20533;-79
2021/07/01 00:32:37;;;;;;;11.30;10.20;;;19.00;99.90;;;;;;5014360;28;20536;-80
2021/07/01 00:35:07;;;;;;;12.10;10.87;;;19.00;99.90;;;;;;5006804;28;20493;-80
2021/07/01 00:37:34;;;;;;;11.50;10.27;;;19.00;99.90;;;;;;4994655;28;20490;-79
2021/07/01 00:40:01;;;;;;;11.60;10.40;;;18.90;99.90;;;;;;4994620;28;20446;-80
2021/07/01 00:42:28;;;;;;;12.03;10.83;;;18.90;99.90;;;;;;4994629;28;20455;-79
2021/07/01 00:44:54;;;;;;;10.97;9.87;;;18.90;99.90;;;;;;5010840;28;20546;-79
2021/07/01 00:47:21;;;;;;;13.00;9.77;;;18.90;99.90;;;;;;5014034;28;20486;-80
2021/07/01 00:49:48;;;;;;;12.03;10.47;;;18.90;99.90;;;;;;5014015;28;20857;-80
2021/07/01 00:52:16;;;;;;;11.67;10.00;;;18.90;99.90;;;;;;5013774;28;20585;-80
2021/07/01 00:54:43;;;;;;;13.60;10.90;;;18.90;99.90;;;;;;5014146;28;20481;-80
2021/07/01 00:57:10;;;;;;;14.17;12.40;;;18.90;99.90;;;;;;5013819;28;20945;-80
2021/07/01 00:59:37;;;;;;;14.63;12.37;;;18.90;99.90;;;;;;5013907;28;20523;-80
2021/07/01 01:02:04;;;;;;;15.40;13.20;;;18.90;99.90;;;;;;5013816;28;20486;-80
2021/07/01 01:04:31;;;;;;;14.80;13.17;;;18.80;99.90;;;;;;5013502;28;20489;-80
2021/07/01 01:06:57;;;;;;;16.70;12.80;;;18.80;99.90;;;;;;5013981;28;20482;-80
2021/07/01 01:09:25;;;;;;;14.20;12.80;;;18.80;99.90;;;;;;5013892;28;20478;-80
2021/07/01 01:11:52;;;;;;;14.90;12.80;;;18.80;99.90;;;;;;5013715;28;20563;-81
2021/07/01 01:14:18;;;;;;;18.23;13.67;;;18.80;99.90;;;;;;5013758;28;20453;-80
2021/07/01 01:16:45;;;;;;;14.60;13.13;;;18.80;99.90;;;;;;5013548;28;20510;-80
2021/07/01 01:19:12;;;;;;;15.87;13.27;;;18.80;99.90;;;;;;5013576;28;20449;-80
2021/07/01 01:21:40;;;;;;;15.10;13.50;;;18.80;99.90;;;;;;5013655;28;20486;-79
2021/07/01 01:24:08;;;;;;;16.03;13.93;;;18.80;99.90;;;;;;5013714;28;20450;-80
2021/07/01 01:26:34;;;;;;;15.93;14.17;;;18.70;99.90;;;;;;5013594;28;20450;-80
2021/07/01 01:29:01;;;;;;;20.50;13.70;;;18.70;99.90;;;;;;5013347;28;20508;-80
2021/07/01 01:31:28;;;;;;;20.50;14.13;;;18.70;99.90;;;;;;5013218;28;20623;-80
2021/07/01 01:33:55;;;;;;;18.23;15.33;;;18.60;99.90;;;;;;5013132;28;20462;-80
2021/07/01 01:36:22;;;;;;;17.17;14.10;;;18.60;99.90;;;;;;5013342;28;20508;-80
2021/07/01 01:38:49;;;;;;;16.67;13.83;;;18.60;99.90;;;;;;5013336;28;20516;-80
2021/07/01 01:41:16;;;;;;;17.40;14.00;;;18.50;99.90;;;;;;5013233;28;20485;-80
2021/07/01 01:43:43;;;;;;;16.37;14.00;;;18.50;99.90;;;;;;5013223;28;20545;-80
2021/07/01 01:46:09;;;;;;;12.30;10.90;;;18.50;99.90;;;;;;5013059;28;20873;-79
2021/07/01 01:48:36;;;;;;;14.77;12.20;;;18.50;99.90;;;;;;5013274;28;20944;-80
2021/07/01 01:51:02;;;;;;;13.43;10.70;;;18.50;99.90;;;;;;5013361;28;20577;-79
2021/07/01 01:53:29;;;;;;;12.43;10.60;;;18.50;99.90;;;;;;5012197;28;20513;-79
2021/07/01 01:55:55;;;;;;;17.00;10.40;;;18.50;99.90;;;;;;5013240;28;20544;-80
2021/07/01 01:58:24;;;;;;;10.50;9.50;;;18.50;99.90;;;;;;5013027;28;20481;-79
2021/07/01 02:00:51;;;;;;;10.13;8.90;;;18.40;99.90;;;;;;5012946;28;20912;-80
2021/07/01 02:03:17;;;;;;;12.07;9.13;;;18.40;99.90;;;;;;5013102;28;20869;-79
2021/07/01 02:05:44;;;;;;;8.50;7.70;;;18.50;99.90;;;;;;5013116;28;20452;-79
2021/07/01 02:08:10;;;;;;;9.80;8.17;;;18.50;99.90;;;;;;5012940;28;20540;-79
2021/07/01 02:10:37;;;;;;;8.63;7.83;;;18.50;99.90;;;;;;5012966;28;20485;-79
2021/07/01 02:13:09;;;;;;;8.70;7.80;;;18.50;99.90;;;;;;5012630;28;20478;-79
2021/07/01 02:15:37;;;;;;;9.43;8.47;;;18.50;99.90;;;;;;5013264;28;20452;-79
2021/07/01 02:18:04;;;;;;;8.20;7.40;;;18.40;99.90;;;;;;5016301;28;20505;-79
2021/07/01 02:20:31;;;;;;;9.73;8.73;;;18.40;99.90;;;;;;5016926;28;20450;-79
2021/07/01 02:22:57;;;;;;;9.43;8.43;;;18.40;99.90;;;;;;5016833;28;20482;-79
2021/07/01 02:25:24;;;;;;;21.07;9.23;;;18.40;99.90;;;;;;5016831;28;20508;-79
2021/07/01 02:27:51;;;;;;;12.60;10.43;;;18.40;99.90;;;;;;5016523;28;20489;-79
2021/07/01 02:30:19;;;;;;;11.43;10.23;;;18.40;99.90;;;;;;5016868;28;20485;-79
2021/07/01 02:32:47;;;;;;;8.77;7.87;;;18.50;99.90;;;;;;5016713;28;20478;-80
2021/07/01 02:35:14;;;;;;;9.37;7.93;;;18.60;99.90;;;;;;5016740;28;20493;-79
2021/07/01 02:37:41;;;;;;;10.00;8.83;;;18.60;99.90;;;;;;5016556;28;20496;-79
2021/07/01 02:40:12;;;;;;;12.60;8.63;;;18.60;99.90;;;;;;5016402;28;20457;-79
2021/07/01 02:42:39;;;;;;;12.87;8.70;;;18.60;99.90;;;;;;5016429;28;21040;-80
2021/07/01 02:45:06;;;;;;;10.50;9.20;;;18.60;99.90;;;;;;4998779;28;20892;-79
2021/07/01 02:47:33;;;;;;;12.20;9.43;;;18.60;99.90;;;;;;4996641;28;20451;-80
2021/07/01 02:50:01;;;;;;;10.73;9.70;;;18.60;99.90;;;;;;4996828;28;20537;-80
2021/07/01 02:52:27;;;;;;;13.53;9.80;;;18.60;99.90;;;;;;4996372;28;20518;-79
2021/07/01 02:54:54;;;;;;;12.47;9.90;;;18.60;99.90;;;;;;4996627;28;20490;-79
2021/07/01 02:57:20;;;;;;;10.80;8.87;;;18.60;99.90;;;;;;4996725;28;20483;-78
2021/07/01 02:59:47;;;;;;;10.30;9.30;;;18.70;99.90;;;;;;4996463;28;21021;-79
2021/07/01 03:02:13;;;;;;;8.97;8.07;;;18.70;99.90;;;;;;4996705;28;20596;-79
2021/07/01 03:04:40;;;;;;;9.40;8.10;;;18.70;99.90;;;;;;4996379;28;20962;-79
2021/07/01 03:07:08;;;;;;;9.03;8.13;;;18.70;99.90;;;;;;4996393;28;20486;-79
2021/07/01 03:09:35;;;;;;;9.00;8.10;;;18.70;99.90;;;;;;4996329;28;20550;-79
2021/07/01 03:12:01;;;;;;;7.07;6.37;;;18.70;99.90;;;;;;5004992;28;20502;-78
2021/07/01 03:14:28;;;;;;;9.53;7.20;;;18.70;99.90;;;;;;5015805;28;20991;-78
2021/07/01 03:16:55;;;;;;;7.50;6.10;;;18.70;99.90;;;;;;5015799;28;20596;-78
2021/07/01 03:19:21;;;;;;;6.40;5.90;;;18.70;99.90;;;;;;5015916;28;20480;-78
2021/07/01 03:21:48;;;;;;;7.90;6.23;;;18.70;99.90;;;;;;5015536;28;20485;-78
2021/07/01 03:24:16;;;;;;;5.37;4.90;;;18.70;99.90;;;;;;5015605;28;20839;-78
2021/07/01 03:26:43;;;;;;;4.00;3.70;;;18.70;99.90;;;;;;5015845;28;20505;-79
2021/07/01 03:29:10;;;;;;;3.70;3.40;;;18.70;99.90;;;;;;5015229;28;20505;-79
2021/07/01 03:31:37;;;;;;;4.70;3.43;;;18.60;99.90;;;;;;5015662;28;20457;-79
2021/07/01 03:34:03;;;;;;;3.17;2.97;;;18.60;99.90;;;;;;5015526;28;20484;-79
2021/07/01 03:36:30;;;;;;;4.77;2.80;;;18.60;99.90;;;;;;5015512;28;20869;-79
2021/07/01 03:38:57;;;;;;;3.03;2.70;;;18.50;99.90;;;;;;5015640;28;20847;-79
2021/07/01 03:41:25;;;;;;;2.33;2.13;;;18.50;99.90;;;;;;5015736;28;20545;-79
2021/07/01 03:43:52;;;;;;;2.07;1.80;;;18.50;99.90;;;;;;5015459;28;20545;-79
2021/07/01 03:46:19;;;;;;;2.07;1.97;;;18.40;99.90;;;;;;5015312;28;20488;-79
2021/07/01 03:48:45;;;;;;;1.53;1.43;;;18.40;99.90;;;;;;5015265;28;20537;-79
2021/07/01 03:51:12;;;;;;;1.77;1.67;;;18.30;99.90;;;;;;5015266;28;20492;-80
2021/07/01 03:53:38;;;;;;;2.53;1.90;;;18.20;99.90;;;;;;5015047;28;20528;-79
2021/07/01 03:56:05;;;;;;;3.00;1.67;;;18.10;99.90;;;;;;5015238;28;20450;-80
2021/07/01 03:58:33;;;;;;;1.90;1.80;;;18.00;99.90;;;;;;5015100;28;20992;-79
2021/07/01 04:01:00;;;;;;;1.80;1.70;;;18.00;99.90;;;;;;5015136;28;20460;-79
2021/07/01 04:03:26;;;;;;;3.83;1.70;;;17.90;99.90;;;;;;5014806;28;20481;-79
2021/07/01 04:05:53;;;;;;;1.80;1.70;;;17.90;99.90;;;;;;5014814;28;20454;-79
2021/07/01 04:08:19;;;;;;;2.00;1.90;;;17.90;99.90;;;;;;5014980;28;20500;-79
2021/07/01 04:10:46;;;;;;;2.10;1.93;;;17.90;99.90;;;;;;5014921;28;20493;-80
2021/07/01 04:13:12;;;;;;;2.40;2.20;;;17.80;99.90;;;;;;4996502;28;20816;-81
2021/07/01 04:15:40;;;;;;;2.40;1.93;;;17.80;99.90;;;;;;4995000;28;20550;-81
2021/07/01 04:18:11;;;;;;;4.60;1.70;;;17.80;99.90;;;;;;4994906;28;20518;-80
2021/07/01 04:20:38;;;;;;;2.13;2.03;;;17.70;99.90;;;;;;4995154;28;20542;-80
2021/07/01 04:23:05;;;;;;;1.90;1.70;;;17.70;99.90;;;;;;4994979;28;20977;-80
2021/07/01 04:25:32;;;;;;;2.77;1.80;;;17.60;99.90;;;;;;4994903;28;20545;-81
2021/07/01 04:27:59;;;;;;;1.73;1.63;;;17.60;99.90;;;;;;4994852;28;20974;-81
2021/07/01 04:30:26;;;;;;;5.90;2.40;;;17.60;99.90;;;;;;4994835;28;20462;-80
2021/07/01 04:32:55;;;;;;;1.90;1.80;;;17.60;99.90;;;;;;4995125;28;20509;-80
2021/07/01 04:35:21;;;;;;;1.70;1.37;;;17.60;99.90;;;;;;4994891;28;20538;-80
2021/07/01 04:37:48;;;;;;;1.93;1.70;;;17.60;99.90;;;;;;4994736;28;20494;-80
2021/07/01 04:40:14;;;;;;;2.20;1.70;;;17.60;99.90;;;;;;4994062;28;20489;-80
2021/07/01 04:42:42;;;;;;;8.27;6.33;;;17.60;99.90;;;;;;4994727;28;20494;-80
2021/07/01 04:45:09;;;;;;;2.57;2.10;;;17.50;99.90;;;;;;4993256;28;20847;-80
2021/07/01 04:47:36;;;;;;;1.70;1.30;;;17.50;99.90;;;;;;4992389;28;20483;-79
2021/07/01 04:50:05;;;;;;;1.70;1.60;;;17.40;99.90;;;;;;4992624;28;20506;-80
2021/07/01 04:52:32;;;;;;;4.43;1.63;;;17.40;99.90;;;;;;4992372;28;20881;-80
2021/07/01 04:54:59;;;;;;;2.27;1.80;;;17.40;99.90;;;;;;4992175;28;20494;-80
2021/07/01 04:57:25;;;;;;;1.30;1.20;;;17.40;99.90;;;;;;4992397;28;20478;-79
2021/07/01 04:59:52;;;;;;;1.60;1.20;;;17.30;99.90;;;;;;4992600;28;20459;-80
2021/07/01 05:02:18;;;;;;;2.57;1.20;;;17.30;99.90;;;;;;4993648;28;20542;-80
2021/07/01 05:04:45;;;;;;;1.50;1.20;;;17.30;99.90;;;;;;4993582;28;20487;-79
2021/07/01 05:07:13;;;;;;;1.23;1.10;;;17.20;99.90;;;;;;4994249;28;20538;-80
2021/07/01 05:09:39;;;;;;;1.37;1.03;;;17.30;99.90;;;;;;4994150;28;20490;-78
2021/07/01 05:12:06;;;;;;;1.20;1.10;;;17.30;99.90;;;;;;5003396;28;20541;-79
2021/07/01 05:14:33;;;;;;;1.47;1.37;;;17.20;99.90;;;;;;5013388;28;20561;-79
2021/07/01 05:16:59;;;;;;;2.40;1.07;;;17.20;99.90;;;;;;5013425;28;20518;-78
2021/07/01 05:19:26;;;;;;;3.17;1.47;;;17.20;99.90;;;;;;5013655;28;20546;-79
2021/07/01 05:21:52;;;;;;;3.33;1.00;;;17.20;99.90;;;;;;5013503;28;20493;-79
2021/07/01 05:24:20;;;;;;;4.17;1.30;;;17.30;99.90;;;;;;5013691;28;20494;-79
2021/07/01 05:26:47;;;;;;;1.43;1.33;;;17.20;99.90;;;;;;5013485;28;21021;-79
2021/07/01 05:29:14;;;;;;;7.10;1.63;;;17.30;99.90;;;;;;5013406;28;20963;-79
2021/07/01 05:31:40;;;;;;;2.63;1.63;;;17.30;99.90;;;;;;5013562;28;20455;-79
2021/07/01 05:34:07;;;;;;;1.70;1.40;;;17.30;99.90;;;;;;5013368;28;20513;-79
2021/07/01 05:36:33;;;;;;;1.50;1.40;;;17.20;99.90;;;;;;5013376;28;20490;-79
2021/07/01 05:39:00;;;;;;;2.70;1.27;;;17.30;99.90;;;;;;5013237;28;20481;-79
2021/07/01 05:41:28;;;;;;;2.70;1.50;;;17.20;99.90;;;;;;5013300;28;20450;-79
2021/07/01 05:43:54;;;;;;;2.70;1.43;;;17.20;99.90;;;;;;5013153;28;20488;-79
2021/07/01 05:46:21;;;;;;;1.30;1.20;;;17.20;99.90;;;;;;5013274;28;20816;-78
2021/07/01 05:48:48;;;;;;;1.70;1.40;;;17.10;99.90;;;;;;5013275;28;20536;-78
2021/07/01 05:51:15;;;;;;;2.90;1.53;;;17.10;99.90;;;;;;5013018;28;21009;-78
2021/07/01 05:53:49;;;;;;;1.90;1.67;;;17.10;99.90;;;;;;5013126;28;20482;-78
2021/07/01 05:56:16;;;;;;;1.90;1.10;;;17.00;99.90;;;;;;5012950;28;20446;-78
2021/07/01 05:58:44;;;;;;;1.20;1.10;;;17.00;99.90;;;;;;5013136;28;20964;-79
2021/07/01 06:01:10;;;;;;;1.10;1.00;;;16.90;99.90;;;;;;5013128;28;20537;-79
2021/07/01 06:03:37;;;;;;;1.20;0.80;;;16.90;99.90;;;;;;5013157;28;20458;-78
2021/07/01 06:06:09;;;;;;;1.20;1.07;;;16.80;99.90;;;;;;5013059;28;20512;-78
2021/07/01 06:08:36;;;;;;;1.40;1.00;;;16.80;99.90;;;;;;5012950;28;20454;-77
2021/07/01 06:11:06;;;;;;;1.03;0.90;;;16.80;99.90;;;;;;5012231;28;20482;-77
2021/07/01 06:13:36;;;;;;;1.40;1.13;;;16.70;99.90;;;;;;4993468;28;20916;-77
2021/07/01 06:16:05;;;;;;;1.37;1.10;;;16.80;99.90;;;;;;4993148;28;20462;-77
2021/07/01 06:18:33;;;;;;;1.93;1.00;;;16.80;99.90;;;;;;4993492;28;20938;-77
2021/07/01 06:20:59;;;;;;;1.20;1.10;;;16.80;99.90;;;;;;4993160;28;20455;-77
2021/07/01 06:23:26;;;;;;;3.00;1.10;;;16.70;99.90;;;;;;4998394;28;20458;-77
2021/07/01 06:25:54;;;;;;;5.40;1.00;;;16.70;99.90;;;;;;5003961;28;20489;-77
2021/07/01 06:28:21;;;;;;;2.10;1.13;;;16.70;99.90;;;;;;5000278;28;20870;-76
2021/07/01 06:30:48;;;;;;;1.70;1.20;;;16.70;99.90;;;;;;4993842;28;20534;-77
2021/07/01 06:33:17;;;;;;;1.93;1.10;;;16.70;99.90;;;;;;5010716;28;20477;-78
2021/07/01 06:35:49;;;;;;;1.47;1.37;;;16.70;99.90;;;;;;5012637;28;20454;-78
2021/07/01 06:38:19;;;;;;;1.70;1.60;;;16.70;99.90;;;;;;5012790;28;20455;-78
2021/07/01 06:40:48;;;;;;;1.33;1.00;;;16.60;99.90;;;;;;5002644;28;20989;-78
2021/07/01 06:43:15;;;;;;;2.83;1.43;;;16.70;99.90;;;;;;4993058;28;20540;-78
2021/07/01 06:45:43;;;;;;;1.20;1.10;;;16.60;99.90;;;;;;4992750;28;20451;-77
2021/07/01 06:48:12;;;;;;;1.20;1.00;;;16.60;99.90;;;;;;4992743;28;20509;-78
2021/07/01 06:50:41;;;;;;;1.47;1.37;;;16.60;99.90;;;;;;4992923;28;20478;-78
2021/07/01 06:53:08;;;;;;;2.10;1.67;;;16.60;99.90;;;;;;4992824;28;20553;-78
2021/07/01 06:55:35;;;;;;;1.20;1.10;;;16.60;99.90;;;;;;4992766;28;20455;-78
2021/07/01 06:58:05;;;;;;;2.43;1.27;;;16.60;99.90;;;;;;5004271;28;20446;-78
2021/07/01 07:00:32;;;;;;;1.97;1.30;;;16.50;99.90;;;;;;5012436;28;20481;-78
2021/07/01 07:02:59;;;;;;;1.50;1.40;;;16.50;99.90;;;;;;5012529;28;20496;-77
2021/07/01 07:05:26;;;;;;;1.77;1.50;;;16.50;99.90;;;;;;5005922;28;20541;-77
2021/07/01 07:07:54;;;;;;;1.93;1.40;;;16.50;99.90;;;;;;5004350;28;20594;-77
2021/07/01 07:10:22;;;;;;;2.07;1.40;;;16.50;99.90;;;;;;5006065;28;20805;-78
2021/07/01 07:12:53;;;;;;;1.80;1.47;;;16.50;99.90;;;;;;5005721;28;20942;-78
2021/07/01 07:15:26;;;;;;;1.83;1.47;;;16.50;99.90;;;;;;5004671;28;20450;-78
2021/07/01 07:17:54;;;;;;;1.57;1.10;;;16.60;99.90;;;;;;5004135;28;20503;-78
2021/07/01 07:20:23;;;;;;;1.60;1.50;;;16.60;99.90;;;;;;5005807;28;20957;-78
2021/07/01 07:22:51;;;;;;;4.50;1.90;;;16.50;99.90;;;;;;5005712;28;20950;-79
2021/07/01 07:25:19;;;;;;;1.20;1.10;;;16.50;99.90;;;;;;5006260;28;20544;-78
2021/07/01 07:27:53;;;;;;;1.40;1.30;;;16.50;99.90;;;;;;5005233;28;20478;-79
2021/07/01 07:30:21;;;;;;;1.73;1.33;;;16.60;99.90;;;;;;5001720;28;20468;-79
2021/07/01 07:32:48;;;;;;;1.57;1.47;;;16.60;99.90;;;;;;5003265;28;20475;-79
2021/07/01 07:35:16;;;;;;;1.70;1.60;;;16.70;99.90;;;;;;5005525;28;20565;-78
2021/07/01 07:37:43;;;;;;;1.90;1.50;;;16.70;99.90;;;;;;5008669;28;20450;-78
2021/07/01 07:40:11;;;;;;;2.40;1.60;;;16.80;99.90;;;;;;4995518;28;20482;-79
2021/07/01 07:42:42;;;;;;;2.03;1.60;;;16.90;99.90;;;;;;4995756;28;20566;-79
2021/07/01 07:45:09;;;;;;;1.60;1.50;;;16.90;99.90;;;;;;4995675;28;20491;-79
2021/07/01 07:47:36;;;;;;;1.80;1.50;;;16.90;99.90;;;;;;4995495;28;20505;-79
2021/07/01 07:50:03;;;;;;;1.97;1.10;;;16.90;99.90;;;;;;4995316;28;20871;-78
2021/07/01 07:52:31;;;;;;;2.17;1.40;;;17.00;99.90;;;;;;4995464;28;20993;-79
2021/07/01 07:55:03;;;;;;;1.40;1.30;;;17.00;99.90;;;;;;4995283;28;20489;-79
2021/07/01 07:57:31;;;;;;;1.33;1.10;;;17.00;99.90;;;;;;4995415;28;20447;-77
2021/07/01 07:59:59;;;;;;;3.00;1.37;;;17.10;99.90;;;;;;4995371;28;20447;-79
2021/07/01 08:02:41;;;;;;;1.50;1.40;;;17.10;99.90;;;;;;4995261;28;20538;-79
2021/07/01 08:05:09;;;;;;;1.40;1.30;;;17.10;99.90;;;;;;4995236;28;20463;-79
2021/07/01 08:07:37;;;;;;;1.50;1.20;;;17.20;99.90;;;;;;4995008;28;20489;-79
2021/07/01 08:10:09;;;;;;;2.97;1.40;;;17.20;99.90;;;;;;4995130;28;20451;-79
2021/07/01 08:12:40;;;;;;;1.67;1.10;;;17.20;99.90;;;;;;5005043;28;20446;-79
2021/07/01 08:15:10;;;;;;;1.10;1.00;;;17.30;99.90;;;;;;5002863;28;20470;-79
2021/07/01 08:17:37;;;;;;;1.30;1.20;;;17.30;99.90;;;;;;5011554;28;21145;-81
2021/07/01 08:20:05;;;;;;;1.40;1.30;;;17.40;99.90;;;;;;5011746;28;20454;-80
2021/07/01 08:22:32;;;;;;;1.50;1.13;;;17.30;99.90;;;;;;5014026;28;20538;-80
2021/07/01 08:24:59;;;;;;;1.00;0.90;;;17.30;99.90;;;;;;5013851;28;20545;-79
2021/07/01 08:27:26;;;;;;;1.27;1.00;;;17.30;99.90;;;;;;5014311;28;20861;-80
2021/07/01 08:29:53;;;;;;;1.17;1.07;;;17.30;99.90;;;;;;5014349;28;20490;-79
2021/07/01 08:32:22;;;;;;;1.10;1.00;;;17.40;99.90;;;;;;5006843;28;21020;-79
2021/07/01 08:34:48;;;;;;;1.30;1.20;;;17.40;99.90;;;;;;5004818;28;20486;-80
2021/07/01 08:37:20;;;;;;;1.90;1.40;;;17.50;99.90;;;;;;5013673;28;20842;-80
2021/07/01 08:39:47;;;;;;;1.40;1.00;;;17.60;99.90;;;;;;5013986;28;20846;-80
2021/07/01 08:42:15;;;;;;;0.90;0.90;;;17.60;99.90;;;;;;5013921;28;20493;-80
2021/07/01 08:44:43;;;;;;;0.90;0.80;;;17.60;99.90;;;;;;5013912;28;21007;-79
2021/07/01 08:47:13;;;;;;;1.30;1.20;;;17.60;99.90;;;;;;5013674;28;20450;-79
2021/07/01 08:49:54;;;;;;;1.30;1.20;;;17.60;99.90;;;;;;5013692;28;21011;-79
2021/07/01 08:52:26;;;;;;;1.50;1.40;;;17.70;99.90;;;;;;4993741;28;20454;-80
2021/07/01 08:55:00;;;;;;;6.03;1.60;;;17.70;99.90;;;;;;5012815;28;20566;-80
2021/07/01 08:57:29;;;;;;;1.30;1.20;;;17.70;99.90;;;;;;5010084;28;20446;-80
2021/07/01 09:00:07;;;;;;;1.43;1.20;;;17.80;99.90;;;;;;5010880;28;20444;-79
2021/07/01 09:02:37;;;;;;;1.60;1.43;;;17.70;99.90;;;;;;5012570;28;20473;-78
2021/07/01 09:05:09;;;;;;;1.60;1.50;;;17.70;99.90;;;;;;5013473;28;20466;-77
2021/07/01 09:07:38;;;;;;;1.83;1.47;;;17.70;99.90;;;;;;5007738;28;20446;-78
2021/07/01 09:10:10;;;;;;;1.40;1.30;;;17.70;99.90;;;;;;5000901;28;20484;-78
2021/07/01 09:12:42;;;;;;;1.50;1.40;;;17.50;99.90;;;;;;4999743;28;20478;-78
2021/07/01 09:15:11;;;;;;;1.50;1.40;;;17.60;99.90;;;;;;4993954;28;20487;-78
2021/07/01 09:17:40;;;;;;;1.40;1.30;;;17.60;99.90;;;;;;4993946;28;20533;-78
2021/07/01 09:20:11;;;;;;;2.50;1.80;;;17.60;99.90;;;;;;4994097;28;20455;-78
2021/07/01 09:22:37;;;;;;;6.77;1.80;;;17.60;99.90;;;;;;4994226;28;20542;-78
2021/07/01 09:25:05;;;;;;;1.23;1.13;;;17.60;99.90;;;;;;4993527;28;21058;-78
2021/07/01 09:27:33;;;;;;;1.97;1.53;;;17.50;99.90;;;;;;4994008;28;20455;-77
2021/07/01 09:30:01;;;;;;;1.60;1.50;;;17.60;99.90;;;;;;4993892;28;20941;-77
2021/07/01 09:32:29;;;;;;;2.27;1.77;;;17.60;99.90;;;;;;5007566;28;20453;-78
2021/07/01 09:34:56;;;;;;;1.70;1.53;;;17.60;99.90;;;;;;5012944;28;20885;-78
2021/07/01 09:37:38;;;;;;;1.97;1.67;;;17.60;99.90;;;;;;5006866;28;20458;-78
2021/07/01 09:40:06;;;;;;;1.60;1.50;;;17.60;99.90;;;;;;5004778;28;20443;-78
2021/07/01 09:42:35;;;;;;;2.30;2.10;;;17.60;99.90;;;;;;5005455;28;20446;-76
2021/07/01 09:45:05;;;;;;;2.00;1.70;;;17.50;99.90;;;;;;5001888;28;20474;-77
2021/07/01 09:47:35;;;;;;;2.30;2.10;;;17.50;99.90;;;;;;5003107;28;20474;-77
2021/07/01 09:50:04;;;;;;;1.83;1.73;;;17.50;99.90;;;;;;5000857;28;20450;-76
2021/07/01 09:52:35;;;;;;;2.33;2.23;;;17.50;99.90;;;;;;4999561;28;20457;-77
2021/07/01 09:55:04;;;;;;;1.97;1.87;;;17.40;99.90;;;;;;5002889;28;20479;-77
2021/07/01 09:57:35;;;;;;;2.00;1.90;;;17.50;99.90;;;;;;5001871;28;20879;-77
2021/07/01 10:00:06;;;;;;;2.10;2.00;;;17.40;99.90;;;;;;5005013;28;20524;-77
2021/07/01 10:02:32;;;;;;;2.43;2.23;;;17.50;99.90;;;;;;5000613;28;20447;-78
2021/07/01 10:04:59;;;;;;;2.43;2.20;;;17.50;99.90;;;;;;5008781;28;20549;-78
2021/07/01 10:07:27;;;;;;;2.00;1.90;;;17.50;99.90;;;;;;4996242;28;20481;-78
2021/07/01 10:09:57;;;;;;;3.83;2.10;;;17.60;99.90;;;;;;5005696;28;20447;-78
2021/07/01 10:12:25;;;;;;;2.80;2.60;;;17.60;99.90;;;;;;4993542;28;20482;-78
2021/07/01 10:14:55;;;;;;;2.23;2.13;;;17.60;99.90;;;;;;5007588;28;20577;-78
2021/07/01 10:17:22;;;;;;;2.43;2.23;;;17.50;99.90;;;;;;4993361;28;20558;-78
2021/07/01 10:19:50;;;;;;;2.20;2.10;;;17.50;99.90;;;;;;4992905;28;20447;-78
2021/07/01 10:22:20;;;;;;;3.00;2.80;;;17.40;99.90;;;;;;4992781;28;20799;-77
2021/07/01 10:24:58;;;;;;;2.50;2.40;;;17.30;99.90;;;;;;4992535;28;20534;-78
2021/07/01 10:27:34;;;;;;;3.33;2.80;;;17.30;99.90;;;;;;4989588;28;20455;-78
2021/07/01 10:30:12;;;;;;;3.00;2.80;;;17.30;99.90;;;;;;4981141;28;20919;-79
2021/07/01 10:32:41;;;;;;;3.30;3.10;;;17.20;99.90;;;;;;4990561;28;20442;-79
2021/07/01 10:35:26;;;;;;;3.40;3.20;;;17.20;99.90;;;;;;4988356;28;20511;-78
2021/07/01 10:37:58;;;;;;;3.80;3.40;;;17.30;99.90;;;;;;4989024;28;20455;-78
2021/07/01 10:40:27;;;;;;;4.13;3.93;;;17.30;99.90;;;;;;4993576;28;20530;-78
2021/07/01 10:42:55;;;;;;;3.77;3.57;;;17.30;99.90;;;;;;4993283;28;20446;-78
2021/07/01 10:45:23;;;;;;;3.50;3.30;;;17.40;99.90;;;;;;4992793;28;20443;-78
2021/07/01 10:47:50;;;;;;;4.10;3.87;;;17.50;99.90;;;;;;4992202;28;20489;-77
2021/07/01 10:50:30;;;;;;;4.70;4.40;;;17.60;99.90;;;;;;4985660;28;20534;-78
2021/07/01 10:52:57;;;;;;;4.60;4.30;;;17.60;99.90;;;;;;4992262;28;20443;-78
2021/07/01 10:55:23;;;;;;;4.70;4.17;;;17.70;99.90;;;;;;4979717;28;20588;-78
2021/07/01 10:57:55;;;;;;;4.73;4.43;;;17.70;99.90;;;;;;4995880;28;20784;-78
2021/07/01 11:00:37;;;;;;;5.43;4.70;;;17.60;99.90;;;;;;4996010;28;20478;-78
2021/07/01 11:03:04;;;;;;;4.30;4.00;;;17.60;99.90;;;;;;4996096;28;20540;-76
2021/07/01 11:05:34;;;;;;;4.57;4.27;;;17.50;99.90;;;;;;4996273;28;20478;-76
2021/07/01 11:08:01;;;;;;;4.50;4.30;;;17.50;99.90;;;;;;4995875;28;20453;-76
2021/07/01 11:10:33;;;;;;;4.20;3.80;;;17.50;99.90;;;;;;4995648;28;20450;-77
2021/07/01 11:13:06;;;;;;;4.30;4.00;;;17.50;99.90;;;;;;4993905;28;20803;-77
2021/07/01 11:15:33;;;;;;;5.30;4.90;;;17.50;99.90;;;;;;4994804;28;21035;-77
2021/07/01 11:18:09;;;;;;;4.80;4.50;;;17.50;99.90;;;;;;5013680;28;21036;-77
2021/07/01 11:20:36;;;;;;;5.10;4.70;;;17.50;99.90;;;;;;5015782;28;20493;-77
2021/07/01 11:23:03;;;;;;;5.23;4.93;;;17.50;99.90;;;;;;5015407;28;20817;-78
2021/07/01 11:25:34;;;;;;;7.30;5.43;;;17.50;99.90;;;;;;5015371;28;20454;-77
2021/07/01 11:28:17;;;;;;;5.53;5.13;;;17.60;99.90;;;;;;5015536;28;20457;-77
2021/07/01 11:30:51;;;;;;;6.00;5.60;;;17.70;99.90;;;;;;5015432;28;20852;-77
2021/07/01 11:33:19;;;;;;;5.77;5.37;;;17.80;99.90;;;;;;4995780;28;20501;-77
2021/07/01 11:35:46;;;;;;;6.33;5.83;;;17.90;99.90;;;;;;4995626;28;20577;-77
2021/07/01 11:38:28;;;;;;;5.40;4.90;;;17.90;99.90;;;;;;4995653;28;20542;-77
2021/07/01 11:40:56;;;;;;;5.60;5.07;;;18.00;99.90;;;;;;4995637;28;20494;-77
2021/07/01 11:43:24;;;;;;;5.67;5.23;;;18.00;99.90;;;;;;4995458;28;21009;-77
2021/07/01 11:45:51;;;;;;;6.70;6.30;;;18.10;99.90;;;;;;4995463;28;21008;-77
2021/07/01 11:48:20;;;;;;;6.33;5.80;;;18.10;99.90;;;;;;4995060;28;20450;-77
2021/07/01 11:50:48;;;;;;;6.37;5.93;;;18.20;99.90;;;;;;4995545;28;20534;-78
2021/07/01 11:53:15;;;;;;;6.40;5.90;;;18.20;99.90;;;;;;4995657;28;20526;-78
2021/07/01 11:55:42;;;;;;;6.73;6.23;;;18.20;99.90;;;;;;4995167;28;20495;-78
2021/07/01 11:58:12;;;;;;;6.17;5.77;;;18.30;99.90;;;;;;4995410;28;20490;-78
2021/07/01 12:00:40;;;;;;;6.53;6.10;;;18.30;99.90;;;;;;4995136;28;20557;-78
2021/07/01 12:03:07;;;;;;;7.10;6.50;;;18.40;99.90;;;;;;4995393;28;20466;-78
2021/07/01 12:05:35;;;;;;;6.30;5.90;;;18.30;99.90;;;;;;4995234;28;20451;-78
2021/07/01 12:08:04;;;;;;;6.40;5.93;;;18.30;99.90;;;;;;4995296;28;20459;-78
2021/07/01 12:10:31;;;;;;;6.40;6.00;;;18.30;99.90;;;;;;4995072;28;20930;-78
2021/07/01 12:12:57;;;;;;;6.60;6.10;;;18.30;99.90;;;;;;5011300;28;20537;-78
2021/07/01 12:15:24;;;;;;;5.77;5.47;;;18.30;99.90;;;;;;5014320;28;20478;-77
2021/07/01 12:17:54;;;;;;;5.80;5.50;;;18.40;99.90;;;;;;5014457;28;20486;-76
2021/07/01 12:20:33;;;;;;;6.60;6.00;;;18.40;99.90;;;;;;5014630;28;20478;-77
2021/07/01 12:23:02;;;;;;;5.87;5.50;;;18.40;99.90;;;;;;5014432;28;20450;-77
2021/07/01 12:25:44;;;;;;;7.73;5.70;;;18.40;99.90;;;;;;5014421;28;20450;-77
2021/07/01 12:28:12;;;;;;;6.83;6.30;;;18.40;99.90;;;;;;5014343;28;20450;-79
2021/07/01 12:30:55;;;;;;;6.77;6.03;;;18.40;99.90;;;;;;5014311;28;20856;-77
2021/07/01 12:33:38;;;;;;;4.60;4.30;;;18.40;99.90;;;;;;4994876;28;20518;-79
2021/07/01 12:36:07;;;;;;;5.63;5.33;;;18.40;99.90;;;;;;4994293;28;21052;-79
2021/07/01 12:38:34;;;;;;;5.43;5.13;;;18.40;99.90;;;;;;4994827;28;20874;-79
2021/07/01 12:41:03;;;;;;;5.80;5.30;;;18.50;99.90;;;;;;4994440;28;20537;-79
2021/07/01 12:43:55;;;;;;;6.60;5.90;;;18.50;99.90;;;;;;4994511;28;20915;-78
2021/07/01 12:47:08;;;;;;;17.67;15.83;;;18.60;99.90;;;;;;4994319;28;20455;-77
2021/07/01 12:49:46;;;;;;;15.00;13.00;;;18.60;99.90;;;;;;4994555;28;20885;-78